Pagina principale
METAR-TAF:

METAR-TAF

Aeroporti :

Port Elizabeth, Sudafrica

latitudine: 33-59S, longitudine: 025-36E, altezza: 61 m

Osservazione

Il bollettino è stato emesso 1 ora e 3 minuti fa, alle 16:00 UTC
Vento 13 kt da est/nord-est
Temperature 18°C
Umidità 88%
Pressione 1025 hPa
Visibilità 10 km o più
nessuna nube inferiore a 1500 m e nessun cumulonembo

METAR: FAPE 181600Z 07013KT CAVOK 18/16 Q1025 NOSIG

Ora: 19:03 (17:03 UTC)

Previsione

Il bollettino è stato emesso 7 ore e 3 minuti fa, alle 10:00 UTC
Previsione valida dal 18 alle 12 UTC al 19 alle 12 UTC
Vento 15 kt da nord-est
Visibilità 10 km o più
nessuna nube inferiore a 1500 m e nessun cumulonembo
Evoluzione graduale
dal 19 alle 00 UTC al 19 alle 02 UTC
Vento 10 kt da nord

TAF: FAPE 181000Z 1812/1912 05015KT CAVOK TX27/1912Z TN14/1904Z BECMG 1900/1902 36010KT

Osservazioni e previsioni meteorologiche di più di 4000 aeroporti (messaggi METAR e TAF).

Le stazioni disponibili sono rappresentate dai dischi gialli e rossi sulla carta.

Puntare il mouse per vedere il nome della stazione.

Clicca sopra per visualizzare le osservazioni e previsioni meteorologiche.

Per cambiare la mappa : fare clic sui pulsanti verdi con una croce nera per ingrandire, il pulsante verde con un trattino per diminuire, o sulla freccia verde per le mappe adiacenti.


METAR-TAF: